sensor_id;sensor_type;location;lat;lon;timestamp;temperature;humidity
35692;DHT22;26978;44.830;-0.674;2023-02-19T00:03:33;8.90;99.90
35692;DHT22;26978;44.830;-0.674;2023-02-19T00:06:02;8.90;99.90
35692;DHT22;26978;44.830;-0.674;2023-02-19T00:08:29;8.80;99.90
35692;DHT22;26978;44.830;-0.674;2023-02-19T00:10:58;8.80;99.90
35692;DHT22;26978;44.830;-0.674;2023-02-19T00:13:24;8.80;99.90
35692;DHT22;26978;44.830;-0.674;2023-02-19T00:15:49;8.80;99.90
35692;DHT22;26978;44.830;-0.674;2023-02-19T00:18:15;8.80;99.90
35692;DHT22;26978;44.830;-0.674;2023-02-19T00:20:40;8.70;99.90
35692;DHT22;26978;44.830;-0.674;2023-02-19T00:23:06;8.70;99.90
35692;DHT22;26978;44.830;-0.674;2023-02-19T00:25:34;8.70;99.90
35692;DHT22;26978;44.830;-0.674;2023-02-19T00:28:00;8.80;99.90
35692;DHT22;26978;44.830;-0.674;2023-02-19T00:30:26;8.70;99.90
35692;DHT22;26978;44.830;-0.674;2023-02-19T00:32:51;8.70;99.90
35692;DHT22;26978;44.830;-0.674;2023-02-19T00:35:17;8.70;99.90
35692;DHT22;26978;44.830;-0.674;2023-02-19T00:37:42;8.60;99.90
35692;DHT22;26978;44.830;-0.674;2023-02-19T00:40:08;8.40;99.90
35692;DHT22;26978;44.830;-0.674;2023-02-19T00:42:33;8.20;99.90
35692;DHT22;26978;44.830;-0.674;2023-02-19T00:44:59;7.90;99.90
35692;DHT22;26978;44.830;-0.674;2023-02-19T00:47:24;7.90;99.90
35692;DHT22;26978;44.830;-0.674;2023-02-19T00:49:50;8.10;99.90
35692;DHT22;26978;44.830;-0.674;2023-02-19T00:52:15;8.10;99.90
35692;DHT22;26978;44.830;-0.674;2023-02-19T00:54:41;8.20;99.90
35692;DHT22;26978;44.830;-0.674;2023-02-19T00:57:06;8.20;99.90
35692;DHT22;26978;44.830;-0.674;2023-02-19T00:59:32;8.20;99.90
35692;DHT22;26978;44.830;-0.674;2023-02-19T01:01:58;8.40;99.90
35692;DHT22;26978;44.830;-0.674;2023-02-19T01:04:23;8.40;99.90
35692;DHT22;26978;44.830;-0.674;2023-02-19T01:06:49;8.50;99.90
35692;DHT22;26978;44.830;-0.674;2023-02-19T01:09:14;8.50;99.90
35692;DHT22;26978;44.830;-0.674;2023-02-19T01:11:40;8.50;99.90
35692;DHT22;26978;44.830;-0.674;2023-02-19T01:14:05;8.50;99.90
35692;DHT22;26978;44.830;-0.674;2023-02-19T01:16:31;8.40;99.90
35692;DHT22;26978;44.830;-0.674;2023-02-19T01:18:56;8.40;99.90
35692;DHT22;26978;44.830;-0.674;2023-02-19T01:21:23;8.10;99.90
35692;DHT22;26978;44.830;-0.674;2023-02-19T01:23:49;8.00;99.90
35692;DHT22;26978;44.830;-0.674;2023-02-19T01:26:16;8.10;99.90
35692;DHT22;26978;44.830;-0.674;2023-02-19T01:28:42;8.20;99.90
35692;DHT22;26978;44.830;-0.674;2023-02-19T01:31:09;8.30;99.90
35692;DHT22;26978;44.830;-0.674;2023-02-19T01:33:36;8.30;99.90
35692;DHT22;26978;44.830;-0.674;2023-02-19T01:36:02;8.30;99.90
35692;DHT22;26978;44.830;-0.674;2023-02-19T01:38:27;8.40;99.90
35692;DHT22;26978;44.830;-0.674;2023-02-19T01:40:57;8.50;99.90
35692;DHT22;26978;44.830;-0.674;2023-02-19T01:43:23;8.50;99.90
35692;DHT22;26978;44.830;-0.674;2023-02-19T01:45:48;8.40;99.90
35692;DHT22;26978;44.830;-0.674;2023-02-19T01:48:24;8.40;99.90
35692;DHT22;26978;44.830;-0.674;2023-02-19T01:50:52;8.40;99.90
35692;DHT22;26978;44.830;-0.674;2023-02-19T01:53:20;8.30;99.90
35692;DHT22;26978;44.830;-0.674;2023-02-19T01:55:47;8.30;99.90
35692;DHT22;26978;44.830;-0.674;2023-02-19T01:58:15;8.20;99.90
35692;DHT22;26978;44.830;-0.674;2023-02-19T02:00:40;8.10;99.90
35692;DHT22;26978;44.830;-0.674;2023-02-19T02:03:06;8.00;99.90
35692;DHT22;26978;44.830;-0.674;2023-02-19T02:05:49;8.00;99.90
35692;DHT22;26978;44.830;-0.674;2023-02-19T02:08:17;8.00;99.90
35692;DHT22;26978;44.830;-0.674;2023-02-19T02:11:02;7.90;99.90
35692;DHT22;26978;44.830;-0.674;2023-02-19T02:13:29;7.80;99.90
35692;DHT22;26978;44.830;-0.674;2023-02-19T02:15:59;7.80;99.90
35692;DHT22;26978;44.830;-0.674;2023-02-19T02:18:35;7.80;99.90
35692;DHT22;26978;44.830;-0.674;2023-02-19T02:23:51;7.70;99.90
35692;DHT22;26978;44.830;-0.674;2023-02-19T02:32:06;7.60;99.90
35692;DHT22;26978;44.830;-0.674;2023-02-19T02:35:08;7.60;99.90
35692;DHT22;26978;44.830;-0.674;2023-02-19T02:37:26;7.60;99.90
35692;DHT22;26978;44.830;-0.674;2023-02-19T02:39:54;7.50;99.90
35692;DHT22;26978;44.830;-0.674;2023-02-19T02:42:22;7.50;99.90
35692;DHT22;26978;44.830;-0.674;2023-02-19T02:44:57;7.50;99.90
35692;DHT22;26978;44.830;-0.674;2023-02-19T02:50:26;7.30;99.90
35692;DHT22;26978;44.830;-0.674;2023-02-19T02:52:55;7.40;99.90
35692;DHT22;26978;44.830;-0.674;2023-02-19T02:55:42;7.40;99.90
35692;DHT22;26978;44.830;-0.674;2023-02-19T02:58:09;7.30;99.90
35692;DHT22;26978;44.830;-0.674;2023-02-19T03:00:35;7.40;99.90
35692;DHT22;26978;44.830;-0.674;2023-02-19T03:03:20;7.40;99.90
35692;DHT22;26978;44.830;-0.674;2023-02-19T03:05:48;7.40;99.90
35692;DHT22;26978;44.830;-0.674;2023-02-19T03:08:28;7.50;99.90
35692;DHT22;26978;44.830;-0.674;2023-02-19T03:10:59;7.50;99.90
35692;DHT22;26978;44.830;-0.674;2023-02-19T03:13:45;7.50;99.90
35692;DHT22;26978;44.830;-0.674;2023-02-19T03:16:30;7.40;99.90
35692;DHT22;26978;44.830;-0.674;2023-02-19T03:19:16;7.40;99.90
35692;DHT22;26978;44.830;-0.674;2023-02-19T03:22:04;7.40;99.90
35692;DHT22;26978;44.830;-0.674;2023-02-19T03:24:37;7.50;99.90
35692;DHT22;26978;44.830;-0.674;2023-02-19T03:27:24;7.50;99.90
35692;DHT22;26978;44.830;-0.674;2023-02-19T03:29:50;7.60;99.90
35692;DHT22;26978;44.830;-0.674;2023-02-19T03:32:28;7.60;99.90
35692;DHT22;26978;44.830;-0.674;2023-02-19T03:34:59;7.70;99.90
35692;DHT22;26978;44.830;-0.674;2023-02-19T03:37:29;7.70;99.90
35692;DHT22;26978;44.830;-0.674;2023-02-19T03:39:55;7.80;99.90
35692;DHT22;26978;44.830;-0.674;2023-02-19T03:47:49;7.90;99.90
35692;DHT22;26978;44.830;-0.674;2023-02-19T03:52:49;8.00;99.90
35692;DHT22;26978;44.830;-0.674;2023-02-19T03:55:22;8.10;99.90
35692;DHT22;26978;44.830;-0.674;2023-02-19T03:57:52;8.20;99.90
35692;DHT22;26978;44.830;-0.674;2023-02-19T04:00:24;8.20;99.90
35692;DHT22;26978;44.830;-0.674;2023-02-19T04:03:15;8.30;99.90
35692;DHT22;26978;44.830;-0.674;2023-02-19T04:05:38;8.30;99.90
35692;DHT22;26978;44.830;-0.674;2023-02-19T04:08:14;8.40;99.90
35692;DHT22;26978;44.830;-0.674;2023-02-19T04:10:40;8.50;99.90
35692;DHT22;26978;44.830;-0.674;2023-02-19T04:13:07;8.60;99.90
35692;DHT22;26978;44.830;-0.674;2023-02-19T04:15:35;8.60;99.90
35692;DHT22;26978;44.830;-0.674;2023-02-19T04:18:03;8.60;99.90
35692;DHT22;26978;44.830;-0.674;2023-02-19T04:20:31;8.70;99.90
35692;DHT22;26978;44.830;-0.674;2023-02-19T04:22:58;8.80;99.90
35692;DHT22;26978;44.830;-0.674;2023-02-19T04:25:24;8.80;99.90
35692;DHT22;26978;44.830;-0.674;2023-02-19T04:27:50;8.80;99.90
35692;DHT22;26978;44.830;-0.674;2023-02-19T04:30:16;8.90;99.90
35692;DHT22;26978;44.830;-0.674;2023-02-19T04:32:41;8.90;99.90
35692;DHT22;26978;44.830;-0.674;2023-02-19T04:35:07;9.00;99.90
35692;DHT22;26978;44.830;-0.674;2023-02-19T04:37:33;9.10;99.90
35692;DHT22;26978;44.830;-0.674;2023-02-19T04:39:58;9.10;99.90
35692;DHT22;26978;44.830;-0.674;2023-02-19T04:42:24;9.20;99.90
35692;DHT22;26978;44.830;-0.674;2023-02-19T04:44:49;9.30;99.90
35692;DHT22;26978;44.830;-0.674;2023-02-19T04:47:15;9.30;99.90
35692;DHT22;26978;44.830;-0.674;2023-02-19T04:49:43;9.40;99.90
35692;DHT22;26978;44.830;-0.674;2023-02-19T04:52:09;9.40;99.90
35692;DHT22;26978;44.830;-0.674;2023-02-19T04:54:35;9.50;99.90
35692;DHT22;26978;44.830;-0.674;2023-02-19T04:57:01;9.50;99.90
35692;DHT22;26978;44.830;-0.674;2023-02-19T04:59:26;9.60;99.90
35692;DHT22;26978;44.830;-0.674;2023-02-19T05:01:52;9.60;99.90
35692;DHT22;26978;44.830;-0.674;2023-02-19T05:04:17;9.70;99.90
35692;DHT22;26978;44.830;-0.674;2023-02-19T05:06:43;9.70;99.90
35692;DHT22;26978;44.830;-0.674;2023-02-19T05:09:08;9.70;99.90
35692;DHT22;26978;44.830;-0.674;2023-02-19T05:11:34;9.80;99.90
35692;DHT22;26978;44.830;-0.674;2023-02-19T05:13:59;9.70;99.90
35692;DHT22;26978;44.830;-0.674;2023-02-19T05:16:25;9.70;99.90
35692;DHT22;26978;44.830;-0.674;2023-02-19T05:18:51;9.70;99.90
35692;DHT22;26978;44.830;-0.674;2023-02-19T05:21:16;9.80;99.90
35692;DHT22;26978;44.830;-0.674;2023-02-19T05:23:42;9.80;99.90
35692;DHT22;26978;44.830;-0.674;2023-02-19T05:26:11;9.90;99.90
35692;DHT22;26978;44.830;-0.674;2023-02-19T05:28:36;9.80;99.90
35692;DHT22;26978;44.830;-0.674;2023-02-19T05:31:03;9.80;99.90
35692;DHT22;26978;44.830;-0.674;2023-02-19T05:33:29;9.90;99.90
35692;DHT22;26978;44.830;-0.674;2023-02-19T05:35:54;9.80;99.90
35692;DHT22;26978;44.830;-0.674;2023-02-19T05:38:22;9.80;99.90
35692;DHT22;26978;44.830;-0.674;2023-02-19T05:40:48;9.80;99.90
35692;DHT22;26978;44.830;-0.674;2023-02-19T05:43:13;9.90;99.90
35692;DHT22;26978;44.830;-0.674;2023-02-19T05:45:39;9.90;99.90
35692;DHT22;26978;44.830;-0.674;2023-02-19T05:48:05;9.90;99.90
35692;DHT22;26978;44.830;-0.674;2023-02-19T05:50:31;9.90;99.90
35692;DHT22;26978;44.830;-0.674;2023-02-19T05:53:00;10.00;99.90
35692;DHT22;26978;44.830;-0.674;2023-02-19T05:55:27;9.90;99.90
35692;DHT22;26978;44.830;-0.674;2023-02-19T05:57:53;10.00;99.90
35692;DHT22;26978;44.830;-0.674;2023-02-19T06:00:18;10.00;99.90
35692;DHT22;26978;44.830;-0.674;2023-02-19T06:02:44;10.00;99.90
35692;DHT22;26978;44.830;-0.674;2023-02-19T06:05:10;10.00;99.90
35692;DHT22;26978;44.830;-0.674;2023-02-19T06:07:36;10.00;99.90
35692;DHT22;26978;44.830;-0.674;2023-02-19T06:10:06;10.00;99.90
35692;DHT22;26978;44.830;-0.674;2023-02-19T06:12:32;10.00;99.90
35692;DHT22;26978;44.830;-0.674;2023-02-19T06:14:58;10.00;99.90
35692;DHT22;26978;44.830;-0.674;2023-02-19T06:17:23;10.10;99.90
35692;DHT22;26978;44.830;-0.674;2023-02-19T06:19:49;10.00;99.90
35692;DHT22;26978;44.830;-0.674;2023-02-19T06:22:14;10.00;99.90
35692;DHT22;26978;44.830;-0.674;2023-02-19T06:24:40;10.10;99.90
35692;DHT22;26978;44.830;-0.674;2023-02-19T06:27:06;10.00;99.90
35692;DHT22;26978;44.830;-0.674;2023-02-19T06:29:32;10.10;99.90
35692;DHT22;26978;44.830;-0.674;2023-02-19T06:31:58;10.10;99.90
35692;DHT22;26978;44.830;-0.674;2023-02-19T06:34:24;10.10;99.90
35692;DHT22;26978;44.830;-0.674;2023-02-19T06:36:49;10.10;99.90
35692;DHT22;26978;44.830;-0.674;2023-02-19T06:39:15;10.10;99.90
35692;DHT22;26978;44.830;-0.674;2023-02-19T06:41:41;10.10;99.90
35692;DHT22;26978;44.830;-0.674;2023-02-19T06:44:06;10.10;99.90
35692;DHT22;26978;44.830;-0.674;2023-02-19T06:46:32;10.10;99.90
35692;DHT22;26978;44.830;-0.674;2023-02-19T06:48:58;10.10;99.90
35692;DHT22;26978;44.830;-0.674;2023-02-19T06:51:23;10.10;99.90
35692;DHT22;26978;44.830;-0.674;2023-02-19T06:53:51;10.20;99.90
35692;DHT22;26978;44.830;-0.674;2023-02-19T06:58:46;10.20;99.90
35692;DHT22;26978;44.830;-0.674;2023-02-19T07:01:12;10.20;99.90
35692;DHT22;26978;44.830;-0.674;2023-02-19T07:03:37;10.20;99.90
35692;DHT22;26978;44.830;-0.674;2023-02-19T07:06:03;10.20;99.90
35692;DHT22;26978;44.830;-0.674;2023-02-19T07:08:28;10.20;99.90
35692;DHT22;26978;44.830;-0.674;2023-02-19T07:10:55;10.20;99.90
35692;DHT22;26978;44.830;-0.674;2023-02-19T07:13:21;10.20;99.90
35692;DHT22;26978;44.830;-0.674;2023-02-19T07:15:47;10.20;99.90
35692;DHT22;26978;44.830;-0.674;2023-02-19T07:18:12;10.20;99.90
35692;DHT22;26978;44.830;-0.674;2023-02-19T07:20:38;10.30;99.90
35692;DHT22;26978;44.830;-0.674;2023-02-19T07:23:03;10.30;99.90
35692;DHT22;26978;44.830;-0.674;2023-02-19T07:25:29;10.30;99.90
35692;DHT22;26978;44.830;-0.674;2023-02-19T07:27:54;10.30;99.90
35692;DHT22;26978;44.830;-0.674;2023-02-19T07:30:20;10.30;99.90
35692;DHT22;26978;44.830;-0.674;2023-02-19T07:32:45;10.30;99.90
35692;DHT22;26978;44.830;-0.674;2023-02-19T07:35:11;10.40;99.90
35692;DHT22;26978;44.830;-0.674;2023-02-19T07:37:36;10.40;99.90
35692;DHT22;26978;44.830;-0.674;2023-02-19T07:40:02;10.40;99.90
35692;DHT22;26978;44.830;-0.674;2023-02-19T07:42:29;10.40;99.90
35692;DHT22;26978;44.830;-0.674;2023-02-19T07:44:54;10.50;99.90
35692;DHT22;26978;44.830;-0.674;2023-02-19T07:47:20;10.50;99.90
35692;DHT22;26978;44.830;-0.674;2023-02-19T07:49:45;10.50;99.90
35692;DHT22;26978;44.830;-0.674;2023-02-19T07:52:11;10.60;99.90
35692;DHT22;26978;44.830;-0.674;2023-02-19T07:54:37;10.60;99.90
35692;DHT22;26978;44.830;-0.674;2023-02-19T07:57:02;10.70;99.90
35692;DHT22;26978;44.830;-0.674;2023-02-19T07:59:28;10.80;99.90
35692;DHT22;26978;44.830;-0.674;2023-02-19T08:01:53;10.70;99.90
35692;DHT22;26978;44.830;-0.674;2023-02-19T08:04:37;10.80;99.90
35692;DHT22;26978;44.830;-0.674;2023-02-19T08:07:03;10.80;99.90
35692;DHT22;26978;44.830;-0.674;2023-02-19T08:09:29;10.90;99.90
35692;DHT22;26978;44.830;-0.674;2023-02-19T08:11:55;10.90;99.90
35692;DHT22;26978;44.830;-0.674;2023-02-19T08:14:39;11.00;99.90
35692;DHT22;26978;44.830;-0.674;2023-02-19T08:17:04;11.00;99.90
35692;DHT22;26978;44.830;-0.674;2023-02-19T08:19:30;10.90;99.90
35692;DHT22;26978;44.830;-0.674;2023-02-19T08:21:56;10.90;99.90
35692;DHT22;26978;44.830;-0.674;2023-02-19T08:24:21;10.90;99.90
35692;DHT22;26978;44.830;-0.674;2023-02-19T08:26:47;10.90;99.90
35692;DHT22;26978;44.830;-0.674;2023-02-19T08:29:12;10.90;99.90
35692;DHT22;26978;44.830;-0.674;2023-02-19T08:31:38;10.90;99.90
35692;DHT22;26978;44.830;-0.674;2023-02-19T08:34:03;10.90;99.90
35692;DHT22;26978;44.830;-0.674;2023-02-19T08:36:29;10.90;99.90
35692;DHT22;26978;44.830;-0.674;2023-02-19T08:38:54;10.90;99.90
35692;DHT22;26978;44.830;-0.674;2023-02-19T08:41:20;10.90;99.90
35692;DHT22;26978;44.830;-0.674;2023-02-19T08:43:45;11.00;99.90
35692;DHT22;26978;44.830;-0.674;2023-02-19T08:46:11;11.10;99.90
35692;DHT22;26978;44.830;-0.674;2023-02-19T08:48:37;11.20;99.90
35692;DHT22;26978;44.830;-0.674;2023-02-19T08:51:03;11.00;99.90
35692;DHT22;26978;44.830;-0.674;2023-02-19T08:53:31;11.10;99.90
35692;DHT22;26978;44.830;-0.674;2023-02-19T08:55:57;11.20;99.90
35692;DHT22;26978;44.830;-0.674;2023-02-19T08:58:22;11.20;99.90
35692;DHT22;26978;44.830;-0.674;2023-02-19T09:00:50;11.20;99.90
35692;DHT22;26978;44.830;-0.674;2023-02-19T09:03:16;11.10;99.90
35692;DHT22;26978;44.830;-0.674;2023-02-19T09:05:41;11.10;99.90
35692;DHT22;26978;44.830;-0.674;2023-02-19T09:08:07;11.10;99.90
35692;DHT22;26978;44.830;-0.674;2023-02-19T09:10:33;11.20;99.90
35692;DHT22;26978;44.830;-0.674;2023-02-19T09:12:58;11.20;99.90
35692;DHT22;26978;44.830;-0.674;2023-02-19T09:15:24;11.30;99.90
35692;DHT22;26978;44.830;-0.674;2023-02-19T09:17:50;11.20;99.90
35692;DHT22;26978;44.830;-0.674;2023-02-19T09:20:17;11.20;99.90
35692;DHT22;26978;44.830;-0.674;2023-02-19T09:22:42;11.20;99.90
35692;DHT22;26978;44.830;-0.674;2023-02-19T09:25:08;11.20;99.90
35692;DHT22;26978;44.830;-0.674;2023-02-19T09:27:33;11.30;99.90
35692;DHT22;26978;44.830;-0.674;2023-02-19T09:29:59;11.30;99.90
35692;DHT22;26978;44.830;-0.674;2023-02-19T09:32:24;11.30;99.90
35692;DHT22;26978;44.830;-0.674;2023-02-19T09:34:50;11.30;99.90
35692;DHT22;26978;44.830;-0.674;2023-02-19T09:37:15;11.30;99.90
35692;DHT22;26978;44.830;-0.674;2023-02-19T09:39:41;11.30;99.90
35692;DHT22;26978;44.830;-0.674;2023-02-19T09:42:17;11.20;99.90
35692;DHT22;26978;44.830;-0.674;2023-02-19T09:44:44;11.20;99.90
35692;DHT22;26978;44.830;-0.674;2023-02-19T09:47:33;11.20;99.90
35692;DHT22;26978;44.830;-0.674;2023-02-19T09:50:00;11.20;99.90
35692;DHT22;26978;44.830;-0.674;2023-02-19T09:54:52;11.20;99.90
35692;DHT22;26978;44.830;-0.674;2023-02-19T09:57:22;11.30;99.90
35692;DHT22;26978;44.830;-0.674;2023-02-19T09:59:52;11.20;99.90
35692;DHT22;26978;44.830;-0.674;2023-02-19T10:02:22;11.30;99.90
35692;DHT22;26978;44.830;-0.674;2023-02-19T10:04:48;11.30;99.90
35692;DHT22;26978;44.830;-0.674;2023-02-19T10:07:20;11.60;99.90
35692;DHT22;26978;44.830;-0.674;2023-02-19T10:09:52;11.60;99.90
35692;DHT22;26978;44.830;-0.674;2023-02-19T10:12:18;11.50;99.90
35692;DHT22;26978;44.830;-0.674;2023-02-19T10:14:47;11.50;99.90
35692;DHT22;26978;44.830;-0.674;2023-02-19T10:17:23;11.50;99.90
35692;DHT22;26978;44.830;-0.674;2023-02-19T10:19:49;11.50;99.90
35692;DHT22;26978;44.830;-0.674;2023-02-19T10:22:15;11.50;99.90
35692;DHT22;26978;44.830;-0.674;2023-02-19T10:24:41;11.50;99.90
35692;DHT22;26978;44.830;-0.674;2023-02-19T10:27:11;11.40;99.90
35692;DHT22;26978;44.830;-0.674;2023-02-19T10:29:37;11.20;99.90
35692;DHT22;26978;44.830;-0.674;2023-02-19T10:32:19;11.00;99.90
35692;DHT22;26978;44.830;-0.674;2023-02-19T10:37:31;11.20;99.90
35692;DHT22;26978;44.830;-0.674;2023-02-19T10:39:57;11.00;99.90
35692;DHT22;26978;44.830;-0.674;2023-02-19T10:42:23;11.00;99.90
35692;DHT22;26978;44.830;-0.674;2023-02-19T10:44:53;11.10;99.90
35692;DHT22;26978;44.830;-0.674;2023-02-19T10:47:23;11.00;99.90
35692;DHT22;26978;44.830;-0.674;2023-02-19T10:49:50;11.00;99.90
35692;DHT22;26978;44.830;-0.674;2023-02-19T10:52:23;11.10;99.90
35692;DHT22;26978;44.830;-0.674;2023-02-19T10:54:51;11.20;99.90
35692;DHT22;26978;44.830;-0.674;2023-02-19T10:59:49;11.30;99.90
35692;DHT22;26978;44.830;-0.674;2023-02-19T11:02:15;11.20;99.90
35692;DHT22;26978;44.830;-0.674;2023-02-19T11:04:41;11.30;99.90
35692;DHT22;26978;44.830;-0.674;2023-02-19T11:07:25;11.30;99.90
35692;DHT22;26978;44.830;-0.674;2023-02-19T11:09:51;11.30;99.90
35692;DHT22;26978;44.830;-0.674;2023-02-19T11:12:24;11.10;99.90
35692;DHT22;26978;44.830;-0.674;2023-02-19T11:14:51;11.00;99.90
35692;DHT22;26978;44.830;-0.674;2023-02-19T11:17:21;11.20;99.90
35692;DHT22;26978;44.830;-0.674;2023-02-19T11:19:49;11.40;99.90
35692;DHT22;26978;44.830;-0.674;2023-02-19T11:22:17;11.40;99.90
35692;DHT22;26978;44.830;-0.674;2023-02-19T11:24:46;11.40;99.90
35692;DHT22;26978;44.830;-0.674;2023-02-19T11:27:16;11.40;99.90
35692;DHT22;26978;44.830;-0.674;2023-02-19T11:29:42;11.30;99.90
35692;DHT22;26978;44.830;-0.674;2023-02-19T11:34:45;11.30;99.90
35692;DHT22;26978;44.830;-0.674;2023-02-19T11:37:15;11.40;99.90
35692;DHT22;26978;44.830;-0.674;2023-02-19T11:39:44;11.50;99.90
35692;DHT22;26978;44.830;-0.674;2023-02-19T11:42:17;11.40;99.90
35692;DHT22;26978;44.830;-0.674;2023-02-19T11:57:44;11.80;99.90
35692;DHT22;26978;44.830;-0.674;2023-02-19T12:00:46;11.80;99.90
35692;DHT22;26978;44.830;-0.674;2023-02-19T12:03:13;12.00;99.90
35692;DHT22;26978;44.830;-0.674;2023-02-19T12:08:26;12.40;99.90
35692;DHT22;26978;44.830;-0.674;2023-02-19T12:36:39;13.30;99.90
35692;DHT22;26978;44.830;-0.674;2023-02-19T12:46:37;13.10;99.90
35692;DHT22;26978;44.830;-0.674;2023-02-19T12:49:06;13.10;99.90
35692;DHT22;26978;44.830;-0.674;2023-02-19T12:54:05;13.20;99.90
35692;DHT22;26978;44.830;-0.674;2023-02-19T13:01:59;12.90;99.90
35692;DHT22;26978;44.830;-0.674;2023-02-19T13:09:58;12.80;99.90
35692;DHT22;26978;44.830;-0.674;2023-02-19T13:12:28;12.80;99.90
35692;DHT22;26978;44.830;-0.674;2023-02-19T13:15:01;12.80;99.90
35692;DHT22;26978;44.830;-0.674;2023-02-19T13:17:35;12.70;99.90
35692;DHT22;26978;44.830;-0.674;2023-02-19T13:20:09;12.70;99.90
35692;DHT22;26978;44.830;-0.674;2023-02-19T13:22:38;12.90;99.90
35692;DHT22;26978;44.830;-0.674;2023-02-19T13:25:25;12.90;99.90
35692;DHT22;26978;44.830;-0.674;2023-02-19T13:33:26;13.10;99.90
35692;DHT22;26978;44.830;-0.674;2023-02-19T13:36:05;13.00;99.90
35692;DHT22;26978;44.830;-0.674;2023-02-19T13:38:39;13.00;99.90
35692;DHT22;26978;44.830;-0.674;2023-02-19T13:41:14;12.60;99.90
35692;DHT22;26978;44.830;-0.674;2023-02-19T13:43:41;12.70;99.90
35692;DHT22;26978;44.830;-0.674;2023-02-19T13:46:08;12.70;99.90
35692;DHT22;26978;44.830;-0.674;2023-02-19T13:48:35;12.80;99.90
35692;DHT22;26978;44.830;-0.674;2023-02-19T13:58:56;12.90;99.90
35692;DHT22;26978;44.830;-0.674;2023-02-19T14:05:03;13.00;99.90
35692;DHT22;26978;44.830;-0.674;2023-02-19T14:14:33;12.80;99.90
35692;DHT22;26978;44.830;-0.674;2023-02-19T14:21:59;13.10;99.90
35692;DHT22;26978;44.830;-0.674;2023-02-19T14:24:25;13.10;99.90
35692;DHT22;26978;44.830;-0.674;2023-02-19T14:26:51;12.80;99.90
35692;DHT22;26978;44.830;-0.674;2023-02-19T14:29:16;12.60;99.90
35692;DHT22;26978;44.830;-0.674;2023-02-19T14:31:43;12.60;99.90
35692;DHT22;26978;44.830;-0.674;2023-02-19T14:34:14;12.50;99.90
35692;DHT22;26978;44.830;-0.674;2023-02-19T14:36:43;12.70;99.90
35692;DHT22;26978;44.830;-0.674;2023-02-19T14:41:43;12.90;99.90
35692;DHT22;26978;44.830;-0.674;2023-02-19T14:44:12;12.90;99.90
35692;DHT22;26978;44.830;-0.674;2023-02-19T14:46:49;12.90;99.90
35692;DHT22;26978;44.830;-0.674;2023-02-19T14:52:02;13.00;99.90
35692;DHT22;26978;44.830;-0.674;2023-02-19T14:54:48;12.80;99.90
35692;DHT22;26978;44.830;-0.674;2023-02-19T14:57:19;12.60;99.90
35692;DHT22;26978;44.830;-0.674;2023-02-19T14:59:57;12.60;99.90
35692;DHT22;26978;44.830;-0.674;2023-02-19T15:02:23;12.40;99.90
35692;DHT22;26978;44.830;-0.674;2023-02-19T15:04:50;12.20;99.90
35692;DHT22;26978;44.830;-0.674;2023-02-19T15:07:18;12.10;99.90
35692;DHT22;26978;44.830;-0.674;2023-02-19T15:09:51;12.10;99.90
35692;DHT22;26978;44.830;-0.674;2023-02-19T15:12:22;12.20;99.90
35692;DHT22;26978;44.830;-0.674;2023-02-19T15:14:48;12.20;99.90
35692;DHT22;26978;44.830;-0.674;2023-02-19T15:17:18;12.30;99.90
35692;DHT22;26978;44.830;-0.674;2023-02-19T15:19:46;12.20;99.90
35692;DHT22;26978;44.830;-0.674;2023-02-19T15:22:16;12.30;99.90
35692;DHT22;26978;44.830;-0.674;2023-02-19T15:24:43;12.30;99.90
35692;DHT22;26978;44.830;-0.674;2023-02-19T15:27:28;12.10;99.90
35692;DHT22;26978;44.830;-0.674;2023-02-19T15:29:54;12.10;99.90
35692;DHT22;26978;44.830;-0.674;2023-02-19T15:32:22;12.00;99.90
35692;DHT22;26978;44.830;-0.674;2023-02-19T15:35:00;11.90;99.90
35692;DHT22;26978;44.830;-0.674;2023-02-19T15:37:27;11.90;99.90
35692;DHT22;26978;44.830;-0.674;2023-02-19T15:39:53;11.90;99.90
35692;DHT22;26978;44.830;-0.674;2023-02-19T15:42:20;11.90;99.90
35692;DHT22;26978;44.830;-0.674;2023-02-19T15:50:10;11.90;99.90
35692;DHT22;26978;44.830;-0.674;2023-02-19T15:52:35;12.00;99.90
35692;DHT22;26978;44.830;-0.674;2023-02-19T15:55:07;11.80;99.90
35692;DHT22;26978;44.830;-0.674;2023-02-19T15:57:37;11.90;99.90
35692;DHT22;26978;44.830;-0.674;2023-02-19T16:00:08;11.90;99.90
35692;DHT22;26978;44.830;-0.674;2023-02-19T16:02:34;11.90;99.90
35692;DHT22;26978;44.830;-0.674;2023-02-19T16:05:00;11.80;99.90
35692;DHT22;26978;44.830;-0.674;2023-02-19T16:07:27;11.80;99.90
35692;DHT22;26978;44.830;-0.674;2023-02-19T16:10:15;11.70;99.90
35692;DHT22;26978;44.830;-0.674;2023-02-19T16:12:41;11.60;99.90
35692;DHT22;26978;44.830;-0.674;2023-02-19T16:15:11;11.50;99.90
35692;DHT22;26978;44.830;-0.674;2023-02-19T16:17:37;11.50;99.90
35692;DHT22;26978;44.830;-0.674;2023-02-19T16:20:15;11.40;99.90
35692;DHT22;26978;44.830;-0.674;2023-02-19T16:22:41;11.50;99.90
35692;DHT22;26978;44.830;-0.674;2023-02-19T16:25:07;11.60;99.90
35692;DHT22;26978;44.830;-0.674;2023-02-19T16:27:45;11.60;99.90
35692;DHT22;26978;44.830;-0.674;2023-02-19T16:35:37;11.60;99.90
35692;DHT22;26978;44.830;-0.674;2023-02-19T16:38:11;11.60;99.90
35692;DHT22;26978;44.830;-0.674;2023-02-19T16:43:23;11.50;99.90
35692;DHT22;26978;44.830;-0.674;2023-02-19T16:45:49;11.50;99.90
35692;DHT22;26978;44.830;-0.674;2023-02-19T16:48:15;11.40;99.90
35692;DHT22;26978;44.830;-0.674;2023-02-19T16:50:40;11.50;99.90
35692;DHT22;26978;44.830;-0.674;2023-02-19T16:53:06;11.50;99.90
35692;DHT22;26978;44.830;-0.674;2023-02-19T16:55:32;11.50;99.90
35692;DHT22;26978;44.830;-0.674;2023-02-19T16:57:59;11.50;99.90
35692;DHT22;26978;44.830;-0.674;2023-02-19T17:00:28;11.50;99.90
35692;DHT22;26978;44.830;-0.674;2023-02-19T17:02:56;11.50;99.90
35692;DHT22;26978;44.830;-0.674;2023-02-19T17:05:22;11.50;99.90
35692;DHT22;26978;44.830;-0.674;2023-02-19T17:07:49;11.50;99.90
35692;DHT22;26978;44.830;-0.674;2023-02-19T17:10:16;11.50;99.90
35692;DHT22;26978;44.830;-0.674;2023-02-19T17:12:41;11.50;99.90
35692;DHT22;26978;44.830;-0.674;2023-02-19T17:15:07;11.50;99.90
35692;DHT22;26978;44.830;-0.674;2023-02-19T17:17:33;11.40;99.90
35692;DHT22;26978;44.830;-0.674;2023-02-19T17:19:59;11.40;99.90
35692;DHT22;26978;44.830;-0.674;2023-02-19T17:22:24;11.40;99.90
35692;DHT22;26978;44.830;-0.674;2023-02-19T17:24:50;11.40;99.90
35692;DHT22;26978;44.830;-0.674;2023-02-19T17:27:16;11.40;99.90
35692;DHT22;26978;44.830;-0.674;2023-02-19T17:29:41;11.40;99.90
35692;DHT22;26978;44.830;-0.674;2023-02-19T17:32:07;11.40;99.90
35692;DHT22;26978;44.830;-0.674;2023-02-19T17:34:32;11.40;99.90
35692;DHT22;26978;44.830;-0.674;2023-02-19T17:36:58;11.40;99.90
35692;DHT22;26978;44.830;-0.674;2023-02-19T17:39:24;11.40;99.90
35692;DHT22;26978;44.830;-0.674;2023-02-19T17:41:50;11.40;99.90
35692;DHT22;26978;44.830;-0.674;2023-02-19T17:44:16;11.40;99.90
35692;DHT22;26978;44.830;-0.674;2023-02-19T17:46:41;11.40;99.90
35692;DHT22;26978;44.830;-0.674;2023-02-19T17:49:08;11.40;99.90
35692;DHT22;26978;44.830;-0.674;2023-02-19T17:51:34;11.40;99.90
35692;DHT22;26978;44.830;-0.674;2023-02-19T17:54:00;11.40;99.90